Time;durP1;ratioP1;P1;durP2;ratioP2;P2;SDS_P1;SDS_P2;PMS_P1;PMS_P2;Temp;Humidity;BMP_temperature;BMP_pressure;BME280_temperature;BME280_humidity;BME280_pressure;Samples;Min_cycle;Max_cycle;Signal;HPM_P1;HPM_P2
2021/10/21 00:00:13;;;;;;;10.70;8.90;;;22.00;54.80;;;;;;5051274;28;20258;-80
2021/10/21 00:02:39;;;;;;;11.40;9.17;;;22.10;54.90;;;;;;5068779;28;20179;-80
2021/10/21 00:05:06;;;;;;;11.97;10.80;;;22.10;54.90;;;;;;5050896;28;20521;-80
2021/10/21 00:07:31;;;;;;;9.83;8.50;;;22.00;54.80;;;;;;5050673;28;20547;-80
2021/10/21 00:09:59;;;;;;;11.30;9.67;;;22.10;54.90;;;;;;5068374;28;20413;-80
2021/10/21 00:12:26;;;;;;;13.57;9.70;;;22.10;54.90;;;;;;5050625;28;20561;-80
2021/10/21 00:14:52;;;;;;;10.50;9.40;;;22.10;54.90;;;;;;5068830;28;20417;-80
2021/10/21 00:17:18;;;;;;;10.63;8.87;;;22.10;54.90;;;;;;5050843;28;20454;-80
2021/10/21 00:19:43;;;;;;;10.40;8.70;;;22.10;54.90;;;;;;5050833;28;20448;-80
2021/10/21 00:22:09;;;;;;;8.93;7.80;;;22.10;54.90;;;;;;5050402;28;20178;-81
2021/10/21 00:24:35;;;;;;;10.43;9.30;;;22.00;54.80;;;;;;5050397;28;20198;-80
2021/10/21 00:27:01;;;;;;;9.90;8.53;;;22.10;54.90;;;;;;5068300;28;20198;-80
2021/10/21 00:29:27;;;;;;;9.60;8.70;;;22.00;54.80;;;;;;5049927;28;20179;-80
2021/10/21 00:31:52;;;;;;;10.63;9.27;;;22.00;54.80;;;;;;5042752;28;20464;-80
2021/10/21 00:34:18;;;;;;;10.80;9.70;;;22.00;54.70;;;;;;5066372;28;20179;-80
2021/10/21 00:36:44;;;;;;;10.60;9.37;;;22.00;54.70;;;;;;5067331;28;20217;-80
2021/10/21 00:39:10;;;;;;;9.33;8.37;;;22.00;54.70;;;;;;5049914;28;20250;-80
2021/10/21 00:41:36;;;;;;;9.57;8.60;;;22.00;54.70;;;;;;5053728;28;20433;-80
2021/10/21 00:44:08;;;;;;;9.10;8.20;;;22.00;54.70;;;;;;5054225;28;20182;-80
2021/10/21 00:46:35;;;;;;;9.50;8.50;;;22.00;54.70;;;;;;5044857;28;20185;-80
2021/10/21 00:49:01;;;;;;;10.53;8.63;;;22.00;54.70;;;;;;5055092;28;20413;-80
2021/10/21 00:51:27;;;;;;;8.77;7.90;;;22.00;54.70;;;;;;5071870;28;20417;-81
2021/10/21 00:53:53;;;;;;;10.40;8.40;;;22.00;54.70;;;;;;5054137;28;20425;-80
2021/10/21 00:56:18;;;;;;;9.10;7.73;;;22.00;54.70;;;;;;5053766;28;20201;-80
2021/10/21 00:58:50;;;;;;;8.20;7.40;;;22.00;54.80;;;;;;5053608;28;20182;-80
2021/10/21 01:01:19;;;;;;;10.07;8.37;;;22.00;54.80;;;;;;5053845;28;20183;-80
2021/10/21 01:03:46;;;;;;;9.13;8.20;;;22.00;54.80;;;;;;5070295;28;20410;-80
2021/10/21 01:06:12;;;;;;;9.17;8.27;;;22.00;54.80;;;;;;5053515;28;20512;-80
2021/10/21 01:08:39;;;;;;;8.93;8.03;;;22.00;54.80;;;;;;5048765;28;20460;-81
2021/10/21 01:11:06;;;;;;;10.40;8.53;;;22.00;54.80;;;;;;5052940;28;20419;-81
2021/10/21 01:13:31;;;;;;;10.17;7.80;;;21.90;54.70;;;;;;5071401;28;20437;-81
2021/10/21 01:16:10;;;;;;;10.27;9.13;;;21.90;54.80;;;;;;5071242;28;20837;-80
2021/10/21 01:18:36;;;;;;;9.70;8.80;;;22.00;54.80;;;;;;5054146;28;20189;-81
2021/10/21 01:21:03;;;;;;;9.23;8.33;;;21.90;54.80;;;;;;5070728;28;20413;-80
2021/10/21 01:23:28;;;;;;;8.63;7.80;;;21.90;54.80;;;;;;5053127;28;20410;-83
2021/10/21 01:25:54;;;;;;;8.53;7.63;;;21.90;54.80;;;;;;5071081;28;20423;-81
2021/10/21 01:28:20;;;;;;;9.33;8.43;;;21.90;54.80;;;;;;5070693;28;20171;-80
2021/10/21 01:30:46;;;;;;;7.73;6.90;;;21.90;54.80;;;;;;5056509;28;20440;-81
2021/10/21 01:33:13;;;;;;;8.30;7.50;;;21.90;54.80;;;;;;5076182;28;20444;-81
2021/10/21 01:35:39;;;;;;;8.87;7.97;;;21.90;54.80;;;;;;5053866;28;20179;-81
2021/10/21 01:38:05;;;;;;;9.13;7.40;;;21.90;54.80;;;;;;5072258;28;20413;-81
2021/10/21 01:40:31;;;;;;;8.97;7.90;;;21.90;54.80;;;;;;5071943;28;20440;-81
2021/10/21 01:42:58;;;;;;;9.00;8.10;;;21.90;54.80;;;;;;5060018;28;20405;-81
2021/10/21 01:45:28;;;;;;;8.13;7.30;;;21.90;54.80;;;;;;5074193;28;20243;-81
2021/10/21 01:47:57;;;;;;;8.47;7.50;;;21.90;54.90;;;;;;5072250;28;20405;-81
2021/10/21 01:50:23;;;;;;;8.07;7.27;;;21.90;54.80;;;;;;5038256;28;20413;-81
2021/10/21 01:52:50;;;;;;;8.00;7.20;;;21.90;54.80;;;;;;5054355;28;20410;-81
2021/10/21 01:55:17;;;;;;;9.43;8.13;;;21.90;54.90;;;;;;5054901;28;20494;-81
2021/10/21 01:57:44;;;;;;;8.10;7.30;;;21.90;54.90;;;;;;5072688;28;20483;-81
2021/10/21 02:00:13;;;;;;;7.70;6.90;;;21.90;54.90;;;;;;5072316;28;20409;-81
2021/10/21 02:02:39;;;;;;;8.60;6.90;;;21.90;54.90;;;;;;5053966;28;20417;-80
2021/10/21 02:05:06;;;;;;;7.30;6.60;;;21.90;54.90;;;;;;5054576;28;20425;-81
2021/10/21 02:07:32;;;;;;;7.70;6.90;;;21.90;54.90;;;;;;5054704;28;20501;-80
2021/10/21 02:09:57;;;;;;;8.00;7.20;;;21.90;54.90;;;;;;5071707;28;20421;-81
2021/10/21 02:12:24;;;;;;;9.50;6.57;;;21.90;54.90;;;;;;5054396;28;20437;-81
2021/10/21 02:14:50;;;;;;;7.67;6.70;;;21.90;54.90;;;;;;5053632;28;20175;-81
2021/10/21 02:17:47;;;;;;;8.00;7.00;;;21.90;54.90;;;;;;5053144;28;20503;-81
2021/10/21 02:20:13;;;;;;;7.90;7.10;;;21.90;54.90;;;;;;5053424;28;20174;-81
2021/10/21 02:22:41;;;;;;;8.70;7.00;;;21.80;54.80;;;;;;5071805;28;20386;-82
2021/10/21 02:25:10;;;;;;;8.50;7.60;;;21.90;55.00;;;;;;5053703;28;20432;-81
2021/10/21 02:27:36;;;;;;;7.67;6.87;;;21.90;54.90;;;;;;5071092;28;20441;-81
2021/10/21 02:30:04;;;;;;;7.40;6.70;;;21.90;54.90;;;;;;5054334;28;20479;-80
2021/10/21 02:32:32;;;;;;;7.30;6.47;;;21.90;54.90;;;;;;5071889;28;20891;-80
2021/10/21 02:34:58;;;;;;;7.33;6.30;;;21.90;54.90;;;;;;5053607;28;20421;-80
2021/10/21 02:37:24;;;;;;;7.27;6.47;;;21.90;54.90;;;;;;5071440;28;20472;-81
2021/10/21 02:39:50;;;;;;;6.50;5.90;;;21.90;54.90;;;;;;5054350;28;20593;-81
2021/10/21 02:42:15;;;;;;;7.40;6.70;;;21.90;54.90;;;;;;5071466;28;20206;-80
2021/10/21 02:44:41;;;;;;;8.00;7.20;;;21.90;54.90;;;;;;5054026;28;20175;-80
2021/10/21 02:47:07;;;;;;;8.00;7.20;;;21.90;54.90;;;;;;5053602;28;20637;-81
2021/10/21 02:49:32;;;;;;;8.17;6.83;;;21.90;54.90;;;;;;5071651;28;20171;-81
2021/10/21 02:52:01;;;;;;;7.47;6.63;;;21.90;54.90;;;;;;5070886;28;20181;-80
2021/10/21 02:54:26;;;;;;;9.67;6.77;;;21.90;54.90;;;;;;5053074;28;20190;-81
2021/10/21 02:56:59;;;;;;;8.53;6.93;;;21.90;54.90;;;;;;5053005;28;20503;-81
2021/10/21 02:59:25;;;;;;;9.40;7.83;;;21.90;54.80;;;;;;5071030;28;20159;-81
2021/10/21 03:01:51;;;;;;;6.93;6.23;;;21.90;54.90;;;;;;5070699;28;20440;-81
2021/10/21 03:04:16;;;;;;;8.43;6.93;;;21.90;55.40;;;;;;5061671;28;20178;-81
2021/10/21 03:06:42;;;;;;;6.33;5.73;;;21.90;54.90;;;;;;5072496;28;20174;-81
2021/10/21 03:09:08;;;;;;;6.93;6.27;;;21.90;54.90;;;;;;5089832;28;20190;-81
2021/10/21 03:11:33;;;;;;;7.60;6.80;;;21.90;54.80;;;;;;5090315;28;20182;-81
2021/10/21 03:13:59;;;;;;;6.97;6.07;;;21.90;54.80;;;;;;5057841;28;20186;-80
2021/10/21 03:16:29;;;;;;;6.20;5.60;;;21.90;54.80;;;;;;5052835;28;20221;-81
2021/10/21 03:18:55;;;;;;;6.80;6.10;;;21.90;54.80;;;;;;5052230;28;20198;-80
2021/10/21 03:21:21;;;;;;;7.30;6.33;;;21.90;54.80;;;;;;5069746;28;20485;-81
2021/10/21 03:23:47;;;;;;;6.67;5.90;;;21.90;54.80;;;;;;5052476;28;20433;-81
2021/10/21 03:26:12;;;;;;;6.67;5.97;;;21.90;54.80;;;;;;5069956;28;20504;-81
2021/10/21 03:28:39;;;;;;;7.73;6.60;;;21.90;54.80;;;;;;5088953;28;20182;-81
2021/10/21 03:31:04;;;;;;;7.03;5.63;;;21.90;55.30;;;;;;5059481;28;20188;-81
2021/10/21 03:33:30;;;;;;;7.03;6.33;;;21.90;54.80;;;;;;5037777;28;20487;-82
2021/10/21 03:35:57;;;;;;;7.20;6.50;;;21.90;54.80;;;;;;5051545;28;20202;-81
2021/10/21 03:38:25;;;;;;;7.17;6.47;;;21.90;54.80;;;;;;5051808;28;20410;-81
2021/10/21 03:40:51;;;;;;;6.80;5.97;;;21.90;54.80;;;;;;5051814;28;20429;-81
2021/10/21 03:43:16;;;;;;;7.00;6.30;;;21.90;54.80;;;;;;5051425;28;20417;-81
2021/10/21 03:45:42;;;;;;;5.93;5.27;;;21.90;54.80;;;;;;5068989;28;20201;-82
2021/10/21 03:48:08;;;;;;;6.50;5.50;;;21.90;54.80;;;;;;5051398;28;20262;-81
2021/10/21 03:50:34;;;;;;;6.43;5.67;;;21.90;54.80;;;;;;5052125;28;20418;-81
2021/10/21 03:52:59;;;;;;;6.93;6.23;;;21.90;54.80;;;;;;5069288;28;20175;-81
2021/10/21 03:55:26;;;;;;;6.30;5.67;;;21.90;54.80;;;;;;5034450;28;20214;-81
2021/10/21 03:57:51;;;;;;;7.17;6.33;;;21.90;54.80;;;;;;5089591;28;20177;-81
2021/10/21 04:00:17;;;;;;;5.73;5.10;;;21.90;54.80;;;;;;5070965;28;20420;-81
2021/10/21 04:02:43;;;;;;;5.60;4.80;;;21.90;54.80;;;;;;5051787;28;20199;-81
2021/10/21 04:05:10;;;;;;;5.70;5.10;;;21.90;54.80;;;;;;5069107;28;20266;-82
2021/10/21 04:07:35;;;;;;;6.13;5.53;;;21.90;54.80;;;;;;5051976;28;20198;-81
2021/10/21 04:10:03;;;;;;;5.80;5.20;;;21.90;54.90;;;;;;5050919;28;20453;-81
2021/10/21 04:12:31;;;;;;;6.20;5.60;;;21.90;54.80;;;;;;5050370;28;20250;-81
2021/10/21 04:14:57;;;;;;;4.57;4.10;;;21.90;54.80;;;;;;5068428;28;20464;-81
2021/10/21 04:17:22;;;;;;;5.23;4.73;;;21.90;54.90;;;;;;5051099;28;20453;-81
2021/10/21 04:19:48;;;;;;;6.83;5.87;;;21.90;54.80;;;;;;5051641;28;21006;-81
2021/10/21 04:22:15;;;;;;;5.50;4.97;;;21.90;55.30;;;;;;5068638;28;20171;-81
2021/10/21 04:24:41;;;;;;;5.20;4.70;;;21.90;54.80;;;;;;5050911;28;20692;-81
2021/10/21 04:27:07;;;;;;;5.67;5.07;;;21.90;54.80;;;;;;5067239;28;20424;-81
2021/10/21 04:29:32;;;;;;;5.27;4.77;;;21.90;54.80;;;;;;5067794;28;20909;-82
2021/10/21 04:32:06;;;;;;;5.80;5.13;;;21.90;54.80;;;;;;5049047;28;20178;-81
2021/10/21 04:34:32;;;;;;;5.87;5.27;;;21.90;54.80;;;;;;5029788;28;20255;-81
2021/10/21 04:36:58;;;;;;;6.00;5.00;;;21.90;54.70;;;;;;5047942;28;20520;-80
2021/10/21 04:39:26;;;;;;;5.50;4.97;;;21.90;54.70;;;;;;5047580;28;20176;-80
2021/10/21 04:41:52;;;;;;;6.20;5.30;;;21.90;54.70;;;;;;5047005;28;20429;-82
2021/10/21 04:44:17;;;;;;;4.57;4.17;;;21.90;54.70;;;;;;5048367;28;20410;-83
2021/10/21 04:46:43;;;;;;;5.60;4.77;;;21.90;54.70;;;;;;5029394;28;20179;-84
2021/10/21 04:49:09;;;;;;;5.33;4.83;;;21.90;54.70;;;;;;5028985;28;20246;-84
2021/10/21 04:51:34;;;;;;;5.20;4.70;;;22.00;54.80;;;;;;5046896;28;20238;-84
2021/10/21 04:54:00;;;;;;;5.13;4.63;;;22.00;54.80;;;;;;5044946;28;20677;-84
2021/10/21 04:56:26;;;;;;;5.70;5.10;;;22.00;54.80;;;;;;5028976;28;20268;-84
2021/10/21 04:58:51;;;;;;;5.20;4.70;;;22.00;54.90;;;;;;5046326;28;20172;-84
2021/10/21 05:01:17;;;;;;;5.53;4.93;;;22.00;54.90;;;;;;5063096;28;20186;-85
2021/10/21 05:03:43;;;;;;;5.80;5.10;;;22.00;54.80;;;;;;5085907;28;20514;-85
2021/10/21 05:06:09;;;;;;;5.90;5.30;;;22.00;54.90;;;;;;5069488;28;20620;-81
2021/10/21 05:08:35;;;;;;;4.87;4.47;;;22.00;54.80;;;;;;5087729;28;20752;-81
2021/10/21 05:11:01;;;;;;;4.93;4.43;;;22.00;54.90;;;;;;5086715;28;20456;-81
2021/10/21 05:13:27;;;;;;;5.17;4.67;;;22.00;54.80;;;;;;5069323;28;20421;-81
2021/10/21 05:15:52;;;;;;;5.30;4.80;;;22.00;54.80;;;;;;5086782;28;20194;-81
2021/10/21 05:18:57;;;;;;;5.37;4.87;;;22.00;54.80;;;;;;5069398;28;20175;-81
2021/10/21 05:21:23;;;;;;;4.70;4.10;;;22.10;54.90;;;;;;5086290;28;20158;-81
2021/10/21 05:23:49;;;;;;;6.03;4.37;;;22.00;54.80;;;;;;5068973;28;20420;-82
2021/10/21 05:26:15;;;;;;;5.73;5.13;;;22.00;54.80;;;;;;5070547;28;20201;-81
2021/10/21 05:28:41;;;;;;;6.40;4.90;;;22.00;55.40;;;;;;5071987;28;20412;-81
2021/10/21 05:31:07;;;;;;;5.10;4.60;;;22.10;54.90;;;;;;5065104;28;20167;-81
2021/10/21 05:33:35;;;;;;;4.87;4.47;;;22.10;54.90;;;;;;5051780;28;20175;-81
2021/10/21 05:36:03;;;;;;;5.00;3.97;;;22.10;54.90;;;;;;5052404;28;20453;-81
2021/10/21 05:38:29;;;;;;;4.80;4.13;;;22.10;54.90;;;;;;5070037;28;20405;-82
2021/10/21 05:40:55;;;;;;;4.40;4.00;;;22.10;54.90;;;;;;5076290;28;20408;-81
2021/10/21 05:43:22;;;;;;;4.30;3.90;;;22.10;54.90;;;;;;5073579;28;20493;-81
2021/10/21 05:45:48;;;;;;;4.40;4.00;;;22.10;54.80;;;;;;5078603;28;20266;-82
2021/10/21 05:48:15;;;;;;;4.30;3.63;;;22.10;55.40;;;;;;5053095;28;20436;-81
2021/10/21 05:50:41;;;;;;;4.27;3.87;;;22.10;54.80;;;;;;5055438;28;20417;-81
2021/10/21 05:53:07;;;;;;;4.07;3.67;;;22.10;54.80;;;;;;5073572;28;20435;-82
2021/10/21 05:55:32;;;;;;;4.67;4.17;;;22.10;54.90;;;;;;5091042;28;20197;-81
2021/10/21 05:57:58;;;;;;;3.87;3.47;;;22.10;54.90;;;;;;5072820;28;20420;-81
2021/10/21 06:00:24;;;;;;;4.40;3.93;;;22.10;54.90;;;;;;5074054;28;20194;-81
2021/10/21 06:02:50;;;;;;;4.63;4.20;;;22.10;54.80;;;;;;5053394;28;20520;-82
2021/10/21 06:05:15;;;;;;;5.00;4.47;;;22.10;54.80;;;;;;5070716;28;20171;-81
2021/10/21 06:07:41;;;;;;;4.70;3.67;;;22.10;54.90;;;;;;5052254;28;20198;-81
2021/10/21 06:10:08;;;;;;;4.00;3.67;;;22.10;54.90;;;;;;5086184;28;20249;-81
2021/10/21 06:12:33;;;;;;;4.70;4.20;;;22.10;54.90;;;;;;5091415;28;20194;-81
2021/10/21 06:15:03;;;;;;;4.10;3.70;;;22.10;54.80;;;;;;5090767;28;20470;-81
2021/10/21 06:17:29;;;;;;;4.00;3.60;;;22.10;54.80;;;;;;5072889;28;20267;-81
2021/10/21 06:19:54;;;;;;;4.20;3.63;;;22.10;54.90;;;;;;5090712;28;20405;-81
2021/10/21 06:22:20;;;;;;;3.90;3.50;;;22.10;54.90;;;;;;5090795;28;20175;-81
2021/10/21 06:24:47;;;;;;;4.63;4.23;;;22.10;54.80;;;;;;5073247;28;20159;-81
2021/10/21 06:27:13;;;;;;;5.30;3.80;;;22.10;54.80;;;;;;5072622;28;20182;-81
2021/10/21 06:29:40;;;;;;;5.10;4.60;;;22.10;54.80;;;;;;5069119;28;20943;-81
2021/10/21 06:32:07;;;;;;;4.40;4.00;;;22.10;54.80;;;;;;5058339;28;20179;-81
2021/10/21 06:34:34;;;;;;;4.03;3.73;;;22.10;54.80;;;;;;5070752;28;20409;-81
2021/10/21 06:37:00;;;;;;;4.40;3.40;;;22.10;54.80;;;;;;5051299;28;20480;-81
2021/10/21 06:39:28;;;;;;;4.00;3.50;;;22.10;54.80;;;;;;5052374;28;20425;-81
2021/10/21 06:41:54;;;;;;;4.23;3.60;;;22.10;54.80;;;;;;5036007;28;20179;-81
2021/10/21 06:44:20;;;;;;;3.47;3.17;;;22.10;54.80;;;;;;5052122;28;20405;-81
2021/10/21 06:46:48;;;;;;;4.30;3.63;;;22.20;54.90;;;;;;5053170;28;20420;-81
2021/10/21 06:49:14;;;;;;;3.57;2.90;;;22.10;54.80;;;;;;5052379;28;20418;-81
2021/10/21 06:51:40;;;;;;;3.57;3.20;;;22.10;54.80;;;;;;5052691;28;20456;-81
2021/10/21 06:54:06;;;;;;;4.33;3.50;;;22.20;54.80;;;;;;5052936;28;20202;-81
2021/10/21 06:56:32;;;;;;;3.90;3.37;;;22.20;54.90;;;;;;5070389;28;20242;-81
2021/10/21 06:58:58;;;;;;;3.43;3.13;;;22.20;54.90;;;;;;5052690;28;20412;-81
2021/10/21 07:01:24;;;;;;;4.00;3.50;;;22.20;54.80;;;;;;5069712;28;20185;-81
2021/10/21 07:03:52;;;;;;;4.07;3.67;;;22.20;54.90;;;;;;5051851;28;20413;-81
2021/10/21 07:06:18;;;;;;;3.13;2.83;;;22.10;54.80;;;;;;5052185;28;20178;-80
2021/10/21 07:08:44;;;;;;;3.43;3.13;;;22.20;54.80;;;;;;5048251;28;20450;-81
2021/10/21 07:11:10;;;;;;;4.87;3.87;;;22.20;54.80;;;;;;5048970;28;20184;-81
2021/10/21 07:13:37;;;;;;;3.93;3.30;;;22.10;54.80;;;;;;5031635;28;20417;-81
2021/10/21 07:16:04;;;;;;;4.70;3.93;;;22.10;54.80;;;;;;5063243;28;20195;-81
2021/10/21 07:18:30;;;;;;;3.37;2.80;;;22.10;54.80;;;;;;5069891;28;20432;-81
2021/10/21 07:20:57;;;;;;;3.93;3.53;;;22.10;54.80;;;;;;5069373;28;20402;-81
2021/10/21 07:23:23;;;;;;;3.73;3.00;;;22.20;54.80;;;;;;5052631;28;20175;-81
2021/10/21 07:25:50;;;;;;;3.40;3.10;;;22.20;54.80;;;;;;5051558;28;20812;-81
2021/10/21 07:28:21;;;;;;;3.20;2.90;;;22.20;54.80;;;;;;5051611;28;20429;-81
2021/10/21 07:30:50;;;;;;;2.97;2.70;;;22.20;54.80;;;;;;5051618;28;20437;-81
2021/10/21 07:33:16;;;;;;;3.33;3.00;;;22.20;54.80;;;;;;5052016;28;20421;-81
2021/10/21 07:35:42;;;;;;;3.00;2.70;;;22.20;55.40;;;;;;5050735;28;20429;-81
2021/10/21 07:38:08;;;;;;;3.27;2.67;;;22.20;54.90;;;;;;5050943;28;20477;-81
2021/10/21 07:40:35;;;;;;;3.57;3.27;;;22.20;54.80;;;;;;5051676;28;20175;-81
2021/10/21 07:43:01;;;;;;;3.67;3.10;;;22.20;54.80;;;;;;5051239;28;20194;-80
2021/10/21 07:45:27;;;;;;;3.30;2.67;;;22.20;54.80;;;;;;5074166;28;20402;-81
2021/10/21 07:47:52;;;;;;;3.67;3.37;;;22.20;54.80;;;;;;5067453;28;20213;-80
2021/10/21 07:50:18;;;;;;;3.53;3.00;;;22.20;54.80;;;;;;5071461;28;20193;-81
2021/10/21 07:52:46;;;;;;;5.10;3.10;;;22.20;54.80;;;;;;5088982;28;20171;-81
2021/10/21 07:55:13;;;;;;;3.03;2.73;;;22.20;54.80;;;;;;5089218;28;20409;-81
2021/10/21 07:57:39;;;;;;;2.87;2.30;;;22.20;54.80;;;;;;5089141;28;20518;-81
2021/10/21 08:00:07;;;;;;;3.17;2.87;;;22.20;54.80;;;;;;5071615;28;20443;-81
2021/10/21 08:02:38;;;;;;;2.60;2.33;;;22.20;54.80;;;;;;5070789;28;20416;-81
2021/10/21 08:05:04;;;;;;;3.40;2.90;;;22.20;54.80;;;;;;5060502;28;20421;-81
2021/10/21 08:07:32;;;;;;;2.87;2.67;;;22.20;54.80;;;;;;5068736;28;20427;-81
2021/10/21 08:09:58;;;;;;;2.70;2.50;;;22.20;54.80;;;;;;5051197;28;20469;-81
2021/10/21 08:12:26;;;;;;;2.90;2.70;;;22.30;54.80;;;;;;5051510;28;20417;-81
2021/10/21 08:14:52;;;;;;;3.00;2.70;;;22.20;54.80;;;;;;5068997;28;20174;-81
2021/10/21 08:17:17;;;;;;;2.90;2.47;;;22.20;54.70;;;;;;5051136;28;20516;-81
2021/10/21 08:19:43;;;;;;;2.60;2.40;;;22.20;54.70;;;;;;5050678;28;20183;-81
2021/10/21 08:22:09;;;;;;;3.80;2.60;;;22.20;54.70;;;;;;5050152;28;20217;-81
2021/10/21 08:24:35;;;;;;;3.27;2.90;;;22.20;54.70;;;;;;5051070;28;20174;-81
2021/10/21 08:27:00;;;;;;;2.53;2.33;;;22.30;54.80;;;;;;5069197;28;20167;-81
2021/10/21 08:32:49;;;;;;;2.93;2.63;;;22.30;54.80;;;;;;5068622;28;20159;-81
2021/10/21 08:38:41;;;;;;;3.17;2.60;;;22.30;54.80;;;;;;5068442;28;20183;-81
2021/10/21 08:41:08;;;;;;;2.90;2.70;;;22.20;54.80;;;;;;5051019;28;20467;-81
2021/10/21 08:43:34;;;;;;;3.63;2.60;;;22.20;54.80;;;;;;5050621;28;20461;-81
2021/10/21 08:46:02;;;;;;;2.90;2.50;;;22.20;54.80;;;;;;5058185;28;20905;-81
2021/10/21 08:48:35;;;;;;;2.50;2.30;;;22.20;54.80;;;;;;5066739;28;20417;-82
2021/10/21 08:51:05;;;;;;;3.20;2.43;;;22.20;54.80;;;;;;5049809;28;20410;-79
2021/10/21 08:53:33;;;;;;;2.93;2.63;;;22.20;54.80;;;;;;5050854;28;20473;-80
2021/10/21 08:55:59;;;;;;;2.80;2.50;;;22.30;54.90;;;;;;5056491;28;20441;-80
2021/10/21 08:58:27;;;;;;;3.00;2.40;;;22.30;54.80;;;;;;5070839;28;20412;-81
2021/10/21 09:01:08;;;;;;;2.60;2.33;;;22.30;54.80;;;;;;5071278;28;20416;-81
2021/10/21 09:03:47;;;;;;;3.33;2.90;;;22.30;54.80;;;;;;5071964;28;20420;-81
2021/10/21 09:07:56;;;;;;;3.40;2.80;;;22.30;54.90;;;;;;5053603;28;20428;-82
2021/10/21 09:09:05;;;;;;;2.60;1.90;;;22.30;54.80;;;;;;5028184;28;20431;-81
2021/10/21 09:11:31;;;;;;;2.93;2.30;;;22.30;54.80;;;;;;5051594;28;20553;-81
2021/10/21 09:14:11;;;;;;;3.27;2.40;;;22.30;54.80;;;;;;5065347;28;20206;-80
2021/10/21 09:16:39;;;;;;;3.07;2.00;;;22.30;54.80;;;;;;5053574;28;20540;-81
2021/10/21 09:19:09;;;;;;;2.40;2.20;;;22.30;54.80;;;;;;5053490;28;20417;-81
2021/10/21 09:21:37;;;;;;;3.13;2.20;;;22.30;54.80;;;;;;5053576;28;20481;-81
2021/10/21 09:24:24;;;;;;;2.63;2.10;;;22.30;54.70;;;;;;5070527;28;20432;-81
2021/10/21 09:27:08;;;;;;;2.90;1.90;;;22.30;54.70;;;;;;5065981;28;20416;-81
2021/10/21 09:29:43;;;;;;;2.93;2.37;;;22.30;54.70;;;;;;5087704;28;20417;-81
2021/10/21 09:32:17;;;;;;;2.57;1.90;;;22.30;54.80;;;;;;5037238;28;20468;-82
2021/10/21 09:34:47;;;;;;;2.63;2.37;;;22.30;54.70;;;;;;5033855;28;20516;-81
2021/10/21 09:37:16;;;;;;;2.30;2.10;;;22.30;54.70;;;;;;5050409;28;20513;-81
2021/10/21 09:39:51;;;;;;;2.70;2.07;;;22.30;54.70;;;;;;5032679;28;20407;-80
2021/10/21 09:42:18;;;;;;;2.10;1.77;;;22.30;54.70;;;;;;5033781;28;20414;-80
2021/10/21 09:44:45;;;;;;;2.07;1.83;;;22.30;54.70;;;;;;5037114;28;20414;-81
2021/10/21 09:47:19;;;;;;;1.63;1.50;;;22.30;54.70;;;;;;5052704;28;20426;-80
2021/10/21 09:49:54;;;;;;;2.83;2.13;;;22.40;54.80;;;;;;5070559;28;20429;-82
2021/10/21 09:52:23;;;;;;;2.50;2.30;;;22.40;54.80;;;;;;5070858;28;20428;-81
2021/10/21 09:54:50;;;;;;;2.43;1.90;;;22.30;54.70;;;;;;5053983;28;20420;-80
2021/10/21 09:57:21;;;;;;;3.13;2.30;;;22.30;54.70;;;;;;5054236;28;20468;-81
2021/10/21 10:00:07;;;;;;;2.23;1.80;;;22.40;54.80;;;;;;5071094;28;20386;-81
2021/10/21 10:19:24;;;;;;;2.60;1.70;;;22.30;54.80;;;;;;5091232;28;20403;-81
2021/10/21 10:21:56;;;;;;;2.30;1.60;;;22.20;54.80;;;;;;5036479;28;20942;-81
2021/10/21 10:24:32;;;;;;;2.40;1.73;;;22.30;54.90;;;;;;5062212;28;20448;-81
2021/10/21 10:27:00;;;;;;;3.30;1.77;;;22.30;54.90;;;;;;5052189;28;20440;-81
2021/10/21 10:29:34;;;;;;;2.50;1.83;;;22.30;54.80;;;;;;5051078;28;20421;-81
2021/10/21 10:32:00;;;;;;;4.07;1.90;;;22.30;54.80;;;;;;5051798;28;20417;-81
2021/10/21 10:34:32;;;;;;;2.33;2.07;;;22.30;54.80;;;;;;5068010;28;20437;-82
2021/10/21 10:37:13;;;;;;;2.83;1.73;;;22.40;54.80;;;;;;5052021;28;20484;-81
2021/10/21 10:39:51;;;;;;;1.40;1.30;;;22.40;54.80;;;;;;5051087;28;20418;-81
2021/10/21 10:42:40;;;;;;;3.07;2.13;;;22.40;54.80;;;;;;5052630;28;20428;-81
2021/10/21 10:45:08;;;;;;;2.10;1.50;;;22.40;54.80;;;;;;5040062;28;20414;-81
2021/10/21 10:47:47;;;;;;;1.60;1.47;;;22.40;55.40;;;;;;5031951;28;20442;-81
2021/10/21 10:50:22;;;;;;;2.63;1.70;;;22.40;54.80;;;;;;5032050;28;20485;-81
2021/10/21 10:52:58;;;;;;;2.03;1.60;;;22.40;54.80;;;;;;5032344;28;20421;-82
2021/10/21 10:55:42;;;;;;;4.03;1.80;;;22.40;54.80;;;;;;5033273;28;20406;-81
2021/10/21 10:58:15;;;;;;;2.10;1.90;;;22.40;54.80;;;;;;5041225;28;20414;-80
2021/10/21 11:00:47;;;;;;;3.63;1.90;;;22.40;54.80;;;;;;5040575;28;20422;-80
2021/10/21 11:03:42;;;;;;;2.50;2.07;;;22.40;54.80;;;;;;5058304;28;20494;-81
2021/10/21 11:06:25;;;;;;;4.63;2.00;;;22.40;54.80;;;;;;5058756;28;20949;-80
2021/10/21 11:09:04;;;;;;;4.10;2.67;;;22.40;54.80;;;;;;5077518;28;20397;-80
2021/10/21 11:11:44;;;;;;;3.80;1.90;;;22.40;54.80;;;;;;5059410;28;20422;-81
2021/10/21 11:14:16;;;;;;;3.50;2.23;;;22.40;54.80;;;;;;5058938;28;20750;-81
2021/10/21 11:16:46;;;;;;;3.90;2.50;;;22.40;54.70;;;;;;5076723;28;20453;-81
2021/10/21 11:19:33;;;;;;;8.57;3.40;;;22.40;54.70;;;;;;5059403;28;20500;-81
2021/10/21 11:21:59;;;;;;;12.10;4.30;;;22.40;54.70;;;;;;5059159;28;20430;-81
2021/10/21 11:24:51;;;;;;;17.67;6.73;;;22.40;54.70;;;;;;5059490;28;20413;-81
2021/10/21 11:27:33;;;;;;;22.80;8.93;;;22.40;54.70;;;;;;5059562;28;20421;-81
2021/10/21 11:30:13;;;;;;;25.53;8.23;;;22.40;54.70;;;;;;5059550;28;20453;-81
2021/10/21 11:32:42;;;;;;;34.27;12.07;;;22.40;55.20;;;;;;5076773;28;20397;-81
2021/10/21 11:35:19;;;;;;;34.20;12.37;;;22.40;54.70;;;;;;5076709;28;20484;-80
2021/10/21 11:37:49;;;;;;;38.57;13.37;;;22.40;54.70;;;;;;5076379;28;20441;-81
2021/10/21 11:40:32;;;;;;;41.67;15.40;;;22.40;54.70;;;;;;5076930;28;20420;-81
2021/10/21 11:43:00;;;;;;;60.10;17.40;;;22.40;54.70;;;;;;5077818;28;20382;-80
2021/10/21 11:45:32;;;;;;;53.53;18.10;;;22.40;54.70;;;;;;5076759;28;20938;-81
2021/10/21 11:48:18;;;;;;;57.13;18.90;;;22.40;54.70;;;;;;5059969;28;20433;-80
2021/10/21 11:50:50;;;;;;;51.70;19.30;;;22.40;54.70;;;;;;5076995;28;20421;-80
2021/10/21 11:53:19;;;;;;;61.43;20.93;;;22.40;54.70;;;;;;5060012;28;20408;-80
2021/10/21 11:55:51;;;;;;;62.23;21.13;;;22.40;54.70;;;;;;5077390;28;20393;-81
2021/10/21 11:58:34;;;;;;;59.13;22.47;;;22.40;54.70;;;;;;5059605;28;20408;-81
2021/10/21 12:01:07;;;;;;;71.60;22.13;;;22.50;54.80;;;;;;5059804;28;20398;-80
2021/10/21 12:03:38;;;;;;;61.00;22.73;;;22.40;54.80;;;;;;5077387;28;20449;-80
2021/10/21 12:06:04;;;;;;;82.77;27.40;;;22.50;54.80;;;;;;5059918;28;20401;-80
2021/10/21 12:08:31;;;;;;;76.53;23.37;;;22.50;54.80;;;;;;5059784;28;20397;-80
2021/10/21 12:10:59;;;;;;;78.60;25.30;;;22.50;54.80;;;;;;5076199;28;20417;-83
2021/10/21 12:13:31;;;;;;;71.03;25.30;;;22.40;54.70;;;;;;5054534;28;20418;-81
2021/10/21 12:16:00;;;;;;;84.80;26.33;;;22.50;54.80;;;;;;5038104;28;20406;-81
2021/10/21 12:18:31;;;;;;;77.17;23.50;;;22.50;54.80;;;;;;5054399;28;20485;-81
2021/10/21 12:21:07;;;;;;;76.70;24.60;;;22.50;54.80;;;;;;5074021;28;20405;-81
2021/10/21 12:23:50;;;;;;;65.80;23.17;;;22.50;54.80;;;;;;5058864;28;20436;-81
2021/10/21 12:26:24;;;;;;;58.07;22.43;;;22.50;54.80;;;;;;5076214;28;20394;-81
2021/10/21 12:28:52;;;;;;;65.83;23.37;;;22.50;54.80;;;;;;5076288;28;20856;-81
2021/10/21 12:31:24;;;;;;;68.20;25.17;;;22.50;54.80;;;;;;5059073;28;20425;-81
2021/10/21 12:34:02;;;;;;;65.70;25.03;;;22.50;54.80;;;;;;5058918;28;20481;-81
2021/10/21 12:36:35;;;;;;;59.67;23.20;;;22.50;54.80;;;;;;5060060;28;20496;-79
2021/10/21 12:39:15;;;;;;;70.53;24.10;;;22.50;54.80;;;;;;5078808;28;20447;-80
2021/10/21 12:41:52;;;;;;;68.87;25.20;;;22.50;54.90;;;;;;5076352;28;20410;-80
2021/10/21 12:44:20;;;;;;;67.23;26.87;;;22.50;55.40;;;;;;5062285;28;20405;-79
2021/10/21 12:46:46;;;;;;;64.80;24.73;;;22.50;54.90;;;;;;5079176;28;20417;-80
2021/10/21 12:49:21;;;;;;;55.53;25.10;;;22.50;54.90;;;;;;5061483;28;20428;-80
2021/10/21 12:51:47;;;;;;;56.57;24.03;;;22.50;54.90;;;;;;5062248;28;20961;-80
2021/10/21 12:54:25;;;;;;;59.63;23.37;;;22.50;54.90;;;;;;5061479;28;20426;-81
2021/10/21 12:56:56;;;;;;;70.10;25.07;;;22.50;54.90;;;;;;5061522;28;20448;-80
2021/10/21 12:59:22;;;;;;;61.70;22.00;;;22.50;55.50;;;;;;5079634;28;20393;-81
2021/10/21 13:01:59;;;;;;;58.37;23.10;;;22.50;54.90;;;;;;5079151;28;20435;-80
2021/10/21 13:04:43;;;;;;;57.93;22.50;;;22.50;54.90;;;;;;5079659;28;20396;-80
2021/10/21 13:07:11;;;;;;;61.57;23.60;;;22.50;54.90;;;;;;5061758;28;20413;-81
2021/10/21 13:09:37;;;;;;;58.37;22.93;;;22.50;54.90;;;;;;5061391;28;20420;-81
2021/10/21 13:12:04;;;;;;;57.00;20.93;;;22.50;54.90;;;;;;5061001;28;20461;-80
2021/10/21 13:14:33;;;;;;;53.87;21.80;;;22.50;54.90;;;;;;5061584;28;20401;-80